createdAt,value
2023-09-11T00:02:19.251Z,16.20
2023-09-11T00:04:46.195Z,16.20
2023-09-11T00:07:13.053Z,16.20
2023-09-11T00:09:39.676Z,16.10
2023-09-11T00:12:07.056Z,16.10
2023-09-11T00:14:33.772Z,16.00
2023-09-11T00:17:00.561Z,16.00
2023-09-11T00:19:27.221Z,15.90
2023-09-11T00:21:53.861Z,16.10
2023-09-11T00:24:20.479Z,16.00
2023-09-11T00:26:47.212Z,16.10
2023-09-11T00:29:14.058Z,16.00
2023-09-11T00:31:40.770Z,16.10
2023-09-11T00:34:07.456Z,16.00
2023-09-11T00:36:34.227Z,16.00
2023-09-11T00:39:00.889Z,16.00
2023-09-11T00:41:27.779Z,16.00
2023-09-11T00:43:54.473Z,15.90
2023-09-11T00:46:21.324Z,15.90
2023-09-11T00:48:52.749Z,15.80
2023-09-11T00:51:19.395Z,15.80
2023-09-11T00:53:46.133Z,15.90
2023-09-11T00:56:13.007Z,16.00
2023-09-11T00:58:40.093Z,16.00
2023-09-11T01:01:07.169Z,16.00
2023-09-11T01:03:33.953Z,16.00
2023-09-11T01:06:01.353Z,16.00
2023-09-11T01:08:28.119Z,16.10
2023-09-11T01:10:55.558Z,16.00
2023-09-11T01:13:22.733Z,16.00
2023-09-11T01:15:57.300Z,15.90
2023-09-11T01:18:31.146Z,15.90
2023-09-11T01:21:27.105Z,15.90
2023-09-11T01:24:02.896Z,16.00
2023-09-11T01:27:09.644Z,16.10
2023-09-11T01:29:38.881Z,16.20
2023-09-11T01:32:06.958Z,16.00
2023-09-11T01:34:33.632Z,15.90
2023-09-11T01:37:00.335Z,15.80
2023-09-11T01:39:27.248Z,15.70
2023-09-11T01:42:05.332Z,15.60
2023-09-11T01:44:38.070Z,15.60
2023-09-11T01:47:08.319Z,15.60
2023-09-11T01:49:38.765Z,15.50
2023-09-11T01:52:08.169Z,15.50
2023-09-11T01:54:37.697Z,15.50
2023-09-11T01:57:06.439Z,15.40
2023-09-11T01:59:33.454Z,15.50
2023-09-11T02:02:00.203Z,15.40
2023-09-11T02:04:26.964Z,15.50
2023-09-11T02:06:53.767Z,15.40
2023-09-11T02:09:20.476Z,15.40
2023-09-11T02:11:47.173Z,15.40
2023-09-11T02:14:13.891Z,15.40
2023-09-11T02:16:40.674Z,15.40
2023-09-11T02:19:07.874Z,15.40
2023-09-11T02:21:34.590Z,15.40
2023-09-11T02:24:01.595Z,15.50
2023-09-11T02:26:28.348Z,15.40
2023-09-11T02:28:56.449Z,15.40
2023-09-11T02:31:23.195Z,15.40
2023-09-11T02:33:49.874Z,15.30
2023-09-11T02:36:16.537Z,15.20
2023-09-11T02:38:43.607Z,15.20
2023-09-11T02:41:10.750Z,15.20
2023-09-11T02:43:38.322Z,15.20
2023-09-11T02:46:05.122Z,15.10
2023-09-11T02:48:33.148Z,15.20
2023-09-11T02:51:00.294Z,15.20
2023-09-11T02:53:27.119Z,15.20
2023-09-11T02:55:54.103Z,15.20
2023-09-11T02:58:20.820Z,15.20
2023-09-11T03:00:47.486Z,15.30
2023-09-11T03:03:14.259Z,15.30
2023-09-11T03:05:41.475Z,15.30
2023-09-11T03:08:08.824Z,15.20
2023-09-11T03:10:35.566Z,15.20
2023-09-11T03:13:02.648Z,15.30
2023-09-11T03:15:31.262Z,15.40
2023-09-11T03:17:58.361Z,15.40
2023-09-11T03:20:25.367Z,15.40
2023-09-11T03:22:53.362Z,15.30
2023-09-11T03:25:20.487Z,15.30
2023-09-11T03:27:47.153Z,15.20
2023-09-11T03:30:14.292Z,15.20
2023-09-11T03:32:41.113Z,15.10
2023-09-11T03:35:08.498Z,15.10
2023-09-11T03:37:36.570Z,15.10
2023-09-11T03:40:08.419Z,15.10
2023-09-11T03:42:36.690Z,15.10
2023-09-11T03:45:03.960Z,15.10
2023-09-11T03:47:30.978Z,15.00
2023-09-11T03:49:57.763Z,15.00
2023-09-11T03:52:24.932Z,15.00
2023-09-11T03:54:51.679Z,15.00
2023-09-11T03:57:18.596Z,14.90
2023-09-11T03:59:45.529Z,14.80
2023-09-11T04:02:12.378Z,14.90
2023-09-11T04:04:39.430Z,14.80
2023-09-11T04:07:06.605Z,14.80
2023-09-11T04:09:34.108Z,14.80
2023-09-11T04:12:04.434Z,14.80
2023-09-11T04:14:31.263Z,14.70
2023-09-11T04:16:58.435Z,14.70
2023-09-11T04:19:25.215Z,14.70
2023-09-11T04:21:52.145Z,14.60
2023-09-11T04:24:18.845Z,14.60
2023-09-11T04:26:46.214Z,14.60
2023-09-11T04:29:13.517Z,14.70
2023-09-11T04:31:41.440Z,14.80
2023-09-11T04:34:09.071Z,14.90
2023-09-11T04:36:36.115Z,14.90
2023-09-11T04:39:03.266Z,14.80
2023-09-11T04:41:29.996Z,14.70
2023-09-11T04:43:57.011Z,14.70
2023-09-11T04:46:23.767Z,14.60
2023-09-11T04:48:50.713Z,14.70
2023-09-11T04:51:17.627Z,14.70
2023-09-11T04:53:44.352Z,14.60
2023-09-11T04:56:11.105Z,14.60
2023-09-11T04:58:38.311Z,14.50
2023-09-11T05:01:05.442Z,14.40
2023-09-11T05:03:33.214Z,14.40
2023-09-11T05:06:00.411Z,14.40
2023-09-11T05:08:27.453Z,14.40
2023-09-11T05:10:54.399Z,14.50
2023-09-11T05:13:21.216Z,14.50
2023-09-11T05:15:49.723Z,14.60
2023-09-11T05:18:16.911Z,14.70
2023-09-11T05:20:45.718Z,14.80
2023-09-11T05:23:12.508Z,14.80
2023-09-11T05:25:39.201Z,14.80
2023-09-11T05:28:06.855Z,14.70
2023-09-11T05:30:34.028Z,14.70
2023-09-11T05:33:00.948Z,14.70
2023-09-11T05:35:27.728Z,14.90
2023-09-11T05:37:54.389Z,15.10
2023-09-11T05:40:21.146Z,15.20
2023-09-11T05:42:47.849Z,15.20
2023-09-11T05:45:39.412Z,15.00
2023-09-11T05:48:06.948Z,14.90
2023-09-11T05:50:33.774Z,14.90
2023-09-11T05:53:00.530Z,14.90
2023-09-11T05:55:27.213Z,15.00
2023-09-11T05:57:53.891Z,15.10
2023-09-11T06:00:20.829Z,15.30
2023-09-11T06:02:47.782Z,15.40
2023-09-11T06:05:14.935Z,15.50
2023-09-11T06:07:41.703Z,15.60
2023-09-11T06:10:11.394Z,15.60
2023-09-11T06:12:38.111Z,15.60
2023-09-11T06:15:05.907Z,15.70
2023-09-11T06:17:43.540Z,15.70
2023-09-11T06:20:14.854Z,15.80
2023-09-11T06:22:41.941Z,15.90
2023-09-11T06:25:08.727Z,15.90
2023-09-11T06:27:36.231Z,16.00
2023-09-11T06:30:06.602Z,16.10
2023-09-11T06:32:34.431Z,16.20
2023-09-11T06:35:05.821Z,16.30
2023-09-11T06:37:32.571Z,16.50
2023-09-11T06:39:59.255Z,16.70
2023-09-11T06:42:26.159Z,16.80
2023-09-11T06:44:53.394Z,16.90
2023-09-11T06:47:20.327Z,17.00
2023-09-11T06:49:47.244Z,17.10
2023-09-11T06:52:13.893Z,17.30
2023-09-11T06:54:40.599Z,17.40
2023-09-11T06:57:07.549Z,17.50
2023-09-11T06:59:35.237Z,17.60
2023-09-11T07:02:02.068Z,17.60
2023-09-11T07:04:29.071Z,17.70
2023-09-11T07:06:57.516Z,17.80
2023-09-11T07:09:27.434Z,17.80
2023-09-11T07:11:54.614Z,17.80
2023-09-11T07:14:22.297Z,17.90
2023-09-11T07:16:49.272Z,18.00
2023-09-11T07:19:16.057Z,18.00
2023-09-11T07:21:42.957Z,18.20
2023-09-11T07:24:09.732Z,18.30
2023-09-11T07:26:36.593Z,18.40
2023-09-11T07:29:04.746Z,18.40
2023-09-11T07:31:32.944Z,18.50
2023-09-11T07:34:00.025Z,18.60
2023-09-11T07:36:28.597Z,18.70
2023-09-11T07:38:55.663Z,18.70
2023-09-11T07:41:23.421Z,18.90
2023-09-11T07:43:51.034Z,19.00
2023-09-11T07:46:22.530Z,19.10
2023-09-11T07:48:53.046Z,19.20
2023-09-11T07:51:19.879Z,19.30
2023-09-11T07:53:47.007Z,19.50
2023-09-11T07:56:14.515Z,19.60
2023-09-11T07:58:41.847Z,19.70
2023-09-11T08:01:09.033Z,19.80
2023-09-11T08:03:36.332Z,19.90
2023-09-11T08:06:06.520Z,20.10
2023-09-11T08:08:33.744Z,20.20
2023-09-11T08:11:18.477Z,20.30
2023-09-11T08:13:51.315Z,20.50
2023-09-11T08:16:18.127Z,20.70
2023-09-11T08:18:45.424Z,20.80
2023-09-11T08:21:13.396Z,21.00
2023-09-11T08:23:43.282Z,21.20
2023-09-11T08:26:10.046Z,21.40
2023-09-11T08:28:36.963Z,21.50
2023-09-11T08:31:04.374Z,21.80
2023-09-11T08:33:40.539Z,22.20
2023-09-11T08:36:09.255Z,22.40
2023-09-11T08:38:36.183Z,22.70
2023-09-11T08:41:06.012Z,22.90
2023-09-11T08:43:32.724Z,23.20
2023-09-11T08:45:59.958Z,23.30
2023-09-11T08:48:30.858Z,23.50
2023-09-11T08:51:03.490Z,23.60
2023-09-11T08:53:33.145Z,23.80
2023-09-11T08:56:00.698Z,23.90
2023-09-11T08:58:29.124Z,24.00
2023-09-11T09:01:00.761Z,24.30
2023-09-11T09:03:29.519Z,24.40
2023-09-11T09:05:57.947Z,24.60
2023-09-11T09:08:25.954Z,24.70
2023-09-11T09:10:54.206Z,24.80
2023-09-11T09:13:20.932Z,24.90
2023-09-11T09:15:47.585Z,25.10
2023-09-11T09:18:14.387Z,25.30
2023-09-11T09:20:41.217Z,25.50
2023-09-11T09:23:07.926Z,25.60
2023-09-11T09:25:34.740Z,25.60
2023-09-11T09:28:01.889Z,25.90
2023-09-11T09:30:33.135Z,26.20
2023-09-11T09:33:03.371Z,26.60
2023-09-11T09:35:32.571Z,26.90
2023-09-11T09:38:00.110Z,27.40
2023-09-11T09:40:35.205Z,27.70
2023-09-11T09:43:06.445Z,28.10
2023-09-11T09:45:40.261Z,28.30
2023-09-11T09:48:07.445Z,28.70
2023-09-11T09:50:56.110Z,29.00
2023-09-11T09:53:42.267Z,29.10
2023-09-11T09:56:11.018Z,29.30
2023-09-11T09:58:45.155Z,29.60
2023-09-11T10:01:14.879Z,29.60
2023-09-11T10:03:46.743Z,29.60
2023-09-11T10:06:19.806Z,29.70
2023-09-11T10:09:08.604Z,29.90
2023-09-11T10:11:36.549Z,29.90
2023-09-11T10:14:07.481Z,30.00
2023-09-11T10:16:35.069Z,30.10
2023-09-11T10:19:03.041Z,30.40
2023-09-11T10:21:30.802Z,30.40
2023-09-11T10:23:57.818Z,30.50
2023-09-11T10:26:30.509Z,30.60
2023-09-11T10:29:01.772Z,30.40
2023-09-11T10:31:50.136Z,30.30
2023-09-11T10:34:17.059Z,30.20
2023-09-11T10:36:48.317Z,30.30
2023-09-11T10:39:17.696Z,30.40
2023-09-11T10:41:44.867Z,30.40
2023-09-11T10:44:12.000Z,30.40
2023-09-11T10:46:40.677Z,30.30
2023-09-11T10:49:18.936Z,30.40
2023-09-11T10:51:50.098Z,30.60
2023-09-11T10:54:21.051Z,30.80
2023-09-11T10:56:50.641Z,30.80
2023-09-11T10:59:20.182Z,30.90
2023-09-11T11:01:47.532Z,30.60
2023-09-11T11:04:16.338Z,30.90
2023-09-11T11:06:47.925Z,31.20
2023-09-11T11:09:35.497Z,31.50
2023-09-11T11:12:09.631Z,31.60
2023-09-11T11:14:36.606Z,31.80
2023-09-11T11:17:09.624Z,32.00
2023-09-11T11:19:41.038Z,31.90
2023-09-11T11:22:09.238Z,31.80
2023-09-11T11:24:51.847Z,31.60
2023-09-11T11:27:19.125Z,31.50
2023-09-11T11:29:45.917Z,31.40
2023-09-11T11:32:14.124Z,31.20
2023-09-11T11:34:43.743Z,31.10
2023-09-11T11:37:12.155Z,31.00
2023-09-11T11:39:39.139Z,31.10
2023-09-11T11:42:06.738Z,31.40
2023-09-11T11:44:36.859Z,31.70
2023-09-11T11:47:04.824Z,31.80
2023-09-11T11:49:31.614Z,31.70
2023-09-11T11:52:02.649Z,31.80
2023-09-11T11:54:30.572Z,31.80
2023-09-11T11:57:02.071Z,31.80
2023-09-11T11:59:42.439Z,32.00
2023-09-11T12:02:25.315Z,32.00
2023-09-11T12:04:55.938Z,32.20
2023-09-11T12:07:24.478Z,31.90
2023-09-11T12:09:51.655Z,32.30
2023-09-11T12:12:18.617Z,32.70
2023-09-11T12:14:45.610Z,32.80
2023-09-11T12:17:12.716Z,32.50
2023-09-11T12:19:39.739Z,32.60
2023-09-11T12:22:07.004Z,32.60
2023-09-11T12:24:33.968Z,32.40
2023-09-11T12:27:01.313Z,32.30
2023-09-11T12:29:30.671Z,32.60
2023-09-11T12:31:58.279Z,32.90
2023-09-11T12:34:25.323Z,32.90
2023-09-11T12:36:52.228Z,33.00
2023-09-11T12:39:19.130Z,33.20
2023-09-11T12:41:46.030Z,33.00
2023-09-11T12:44:13.413Z,33.20
2023-09-11T12:46:40.214Z,33.10
2023-09-11T12:49:07.129Z,33.00
2023-09-11T12:51:34.383Z,33.00
2023-09-11T12:54:02.378Z,33.20
2023-09-11T12:56:29.257Z,33.60
2023-09-11T12:58:57.210Z,33.80
2023-09-11T13:01:31.019Z,33.20
2023-09-11T13:03:58.793Z,33.00
2023-09-11T13:06:27.702Z,33.00
2023-09-11T13:08:56.162Z,33.30
2023-09-11T13:11:22.852Z,33.10
2023-09-11T13:14:03.697Z,33.00
2023-09-11T13:16:36.318Z,33.10
2023-09-11T13:19:03.027Z,33.50
2023-09-11T13:21:29.699Z,33.60
2023-09-11T13:23:56.474Z,33.60
2023-09-11T13:26:23.324Z,33.50
2023-09-11T13:28:50.113Z,33.70
2023-09-11T13:31:16.891Z,33.70
2023-09-11T13:33:44.293Z,33.40
2023-09-11T13:36:12.350Z,33.60
2023-09-11T13:38:39.827Z,33.40
2023-09-11T13:41:06.895Z,33.40
2023-09-11T13:43:33.672Z,33.60
2023-09-11T13:46:00.460Z,33.90
2023-09-11T13:48:27.620Z,33.90
2023-09-11T13:50:54.395Z,34.20
2023-09-11T13:53:21.120Z,34.50
2023-09-11T13:55:47.915Z,34.30
2023-09-11T13:58:14.606Z,34.30
2023-09-11T14:00:41.300Z,33.50
2023-09-11T14:03:08.380Z,33.20
2023-09-11T14:05:45.373Z,33.60
2023-09-11T14:08:14.860Z,33.90
2023-09-11T14:10:41.562Z,33.80
2023-09-11T14:13:11.562Z,33.70
2023-09-11T14:15:39.278Z,33.90
2023-09-11T14:18:06.622Z,34.10
2023-09-11T14:20:33.729Z,34.00
2023-09-11T14:23:00.406Z,34.00
2023-09-11T14:25:27.191Z,33.70
2023-09-11T14:27:53.976Z,34.20
2023-09-11T14:30:21.146Z,34.00
2023-09-11T14:32:47.968Z,33.80
2023-09-11T14:35:14.806Z,33.70
2023-09-11T14:37:41.829Z,33.80
2023-09-11T14:40:10.153Z,33.80
2023-09-11T14:42:36.922Z,33.20
2023-09-11T14:45:04.391Z,33.40
2023-09-11T14:47:31.219Z,32.90
2023-09-11T14:49:58.001Z,32.90
2023-09-11T14:52:24.724Z,33.50
2023-09-11T14:54:54.824Z,33.90
2023-09-11T14:57:23.195Z,33.70
2023-09-11T14:59:50.563Z,33.70
2023-09-11T15:02:17.573Z,33.80
2023-09-11T15:04:49.239Z,33.90
2023-09-11T15:07:17.496Z,34.10
2023-09-11T15:09:46.971Z,34.20
2023-09-11T15:12:13.714Z,33.90
2023-09-11T15:14:40.699Z,33.50
2023-09-11T15:17:07.504Z,33.30
2023-09-11T15:19:34.243Z,33.40
2023-09-11T15:22:01.565Z,33.50
2023-09-11T15:24:28.294Z,33.40
2023-09-11T15:26:55.089Z,33.40
2023-09-11T15:29:21.851Z,33.60
2023-09-11T15:31:59.576Z,33.80
2023-09-11T15:34:35.515Z,33.60
2023-09-11T15:37:02.442Z,33.10
2023-09-11T15:39:29.257Z,32.70
2023-09-11T15:41:55.959Z,32.30
2023-09-11T15:44:22.723Z,32.50
2023-09-11T15:46:49.560Z,32.30
2023-09-11T15:49:16.725Z,32.30
2023-09-11T15:51:43.605Z,31.90
2023-09-11T15:54:10.428Z,31.70
2023-09-11T15:56:37.264Z,31.70
2023-09-11T15:59:05.244Z,31.70
2023-09-11T16:01:32.006Z,31.60
2023-09-11T16:03:58.777Z,31.50
2023-09-11T16:06:25.917Z,31.50
2023-09-11T16:08:52.808Z,31.30
2023-09-11T16:11:20.251Z,31.30
2023-09-11T16:13:46.896Z,31.00
2023-09-11T16:16:13.629Z,30.70
2023-09-11T16:18:40.604Z,30.70
2023-09-11T16:21:07.657Z,30.80
2023-09-11T16:23:38.817Z,31.00
2023-09-11T16:26:05.605Z,30.90
2023-09-11T16:28:32.318Z,30.70
2023-09-11T16:30:59.072Z,30.40
2023-09-11T16:33:25.974Z,30.20
2023-09-11T16:35:52.846Z,30.10
2023-09-11T16:38:19.541Z,30.00
2023-09-11T16:40:46.239Z,29.90
2023-09-11T16:43:12.910Z,29.90
2023-09-11T16:45:39.821Z,29.90
2023-09-11T16:48:06.665Z,29.90
2023-09-11T16:50:33.351Z,29.80
2023-09-11T16:53:00.130Z,29.50
2023-09-11T16:55:26.799Z,29.20
2023-09-11T16:57:53.457Z,29.00
2023-09-11T17:00:21.771Z,28.60
2023-09-11T17:02:48.652Z,28.20
2023-09-11T17:05:15.402Z,28.00
2023-09-11T17:07:42.123Z,27.90
2023-09-11T17:10:09.164Z,27.70
2023-09-11T17:12:40.573Z,27.40
2023-09-11T17:15:08.502Z,27.20
2023-09-11T17:17:35.633Z,26.90
2023-09-11T17:20:03.042Z,26.80
2023-09-11T17:22:29.940Z,26.50
2023-09-11T17:24:57.271Z,26.30
2023-09-11T17:27:23.989Z,26.00
2023-09-11T17:29:50.704Z,25.80
2023-09-11T17:32:17.372Z,25.50
2023-09-11T17:34:44.970Z,25.20
2023-09-11T17:37:11.633Z,24.90
2023-09-11T17:39:38.364Z,24.80
2023-09-11T17:42:05.404Z,24.50
2023-09-11T17:44:33.787Z,24.30
2023-09-11T17:47:00.511Z,24.10
2023-09-11T17:49:27.645Z,24.00
2023-09-11T17:51:54.362Z,23.80
2023-09-11T17:54:21.112Z,23.60
2023-09-11T17:56:47.868Z,23.40
2023-09-11T17:59:14.601Z,23.20
2023-09-11T18:01:41.353Z,23.10
2023-09-11T18:04:09.708Z,22.90
2023-09-11T18:06:36.593Z,22.80
2023-09-11T18:09:03.835Z,22.60
2023-09-11T18:11:30.583Z,22.50
2023-09-11T18:13:57.605Z,22.40
2023-09-11T18:16:24.418Z,22.40
2023-09-11T18:18:51.102Z,22.20
2023-09-11T18:21:17.877Z,22.20
2023-09-11T18:23:44.593Z,22.10
2023-09-11T18:26:11.327Z,22.10
2023-09-11T18:28:38.053Z,22.00
2023-09-11T18:31:04.945Z,22.00
2023-09-11T18:33:31.755Z,21.80
2023-09-11T18:36:02.685Z,21.70
2023-09-11T18:38:31.647Z,21.60
2023-09-11T18:40:58.402Z,21.50
2023-09-11T18:43:25.218Z,21.50
2023-09-11T18:45:52.039Z,21.40
2023-09-11T18:48:19.145Z,21.30
2023-09-11T18:50:46.080Z,21.30
2023-09-11T18:53:12.719Z,21.20
2023-09-11T18:55:39.392Z,21.20
2023-09-11T18:58:06.107Z,21.10
2023-09-11T19:00:32.813Z,21.10
2023-09-11T19:03:00.801Z,21.00
2023-09-11T19:05:27.612Z,20.90
2023-09-11T19:07:54.294Z,20.90
2023-09-11T19:10:21.026Z,20.80
2023-09-11T19:12:48.196Z,20.80
2023-09-11T19:15:15.275Z,20.70
2023-09-11T19:17:41.969Z,20.70
2023-09-11T19:20:09.118Z,20.60
2023-09-11T19:22:35.800Z,20.60
2023-09-11T19:25:03.707Z,20.50
2023-09-11T19:27:30.944Z,20.50
2023-09-11T19:29:57.687Z,20.50
2023-09-11T19:32:24.458Z,20.40
2023-09-11T19:34:52.700Z,20.40
2023-09-11T19:37:19.473Z,20.40
2023-09-11T19:39:46.150Z,20.30
2023-09-11T19:42:14.480Z,20.20
2023-09-11T19:44:41.533Z,20.20
2023-09-11T19:47:08.222Z,20.10
2023-09-11T19:49:38.227Z,20.10
2023-09-11T19:52:08.881Z,20.10
2023-09-11T19:54:37.493Z,20.10
2023-09-11T19:57:05.038Z,20.00
2023-09-11T19:59:32.134Z,20.00
2023-09-11T20:01:58.892Z,20.00
2023-09-11T20:04:25.876Z,20.00
2023-09-11T20:06:53.124Z,20.00
2023-09-11T20:09:20.059Z,19.90
2023-09-11T20:11:46.757Z,19.90
2023-09-11T20:14:13.427Z,19.90
2023-09-11T20:16:40.146Z,19.80
2023-09-11T20:19:06.900Z,19.80
2023-09-11T20:21:33.608Z,19.70
2023-09-11T20:24:00.369Z,19.70
2023-09-11T20:26:27.183Z,19.70
2023-09-11T20:28:53.824Z,19.70
2023-09-11T20:31:20.591Z,19.70
2023-09-11T20:33:48.333Z,19.60
2023-09-11T20:36:20.463Z,19.60
2023-09-11T20:38:49.964Z,19.60
2023-09-11T20:41:16.649Z,19.60
2023-09-11T20:43:46.703Z,19.50
2023-09-11T20:46:14.168Z,19.50
2023-09-11T20:48:42.431Z,19.50
2023-09-11T20:51:11.223Z,19.50
2023-09-11T20:53:38.865Z,19.50
2023-09-11T20:56:08.830Z,19.50
2023-09-11T20:58:35.986Z,19.50
2023-09-11T21:01:07.304Z,19.50
2023-09-11T21:03:34.521Z,19.50
2023-09-11T21:06:01.971Z,19.50
2023-09-11T21:08:28.872Z,19.60
2023-09-11T21:10:56.045Z,19.60
2023-09-11T21:13:24.042Z,19.60
2023-09-11T21:15:51.433Z,19.70
2023-09-11T21:18:19.184Z,19.70
2023-09-11T21:20:45.945Z,19.70
2023-09-11T21:23:12.647Z,19.70
2023-09-11T21:25:39.815Z,19.70
2023-09-11T21:28:06.911Z,19.80
2023-09-11T21:30:34.958Z,19.90
2023-09-11T21:33:01.932Z,19.90
2023-09-11T21:35:29.621Z,20.10
2023-09-11T21:37:56.314Z,20.10
2023-09-11T21:40:23.062Z,20.10
2023-09-11T21:42:49.771Z,20.10
2023-09-11T21:45:16.512Z,20.10
2023-09-11T21:47:43.257Z,20.10
2023-09-11T21:50:10.258Z,20.00
2023-09-11T21:52:36.999Z,19.90
2023-09-11T21:55:04.430Z,19.90
2023-09-11T21:57:31.268Z,19.90
2023-09-11T21:59:58.068Z,19.90
2023-09-11T22:02:24.801Z,20.00
2023-09-11T22:04:51.557Z,20.00
2023-09-11T22:07:18.388Z,20.00
2023-09-11T22:09:45.131Z,20.00
2023-09-11T22:12:13.214Z,19.90
2023-09-11T22:14:40.381Z,19.90
2023-09-11T22:17:07.676Z,19.90
2023-09-11T22:19:35.442Z,19.90
2023-09-11T22:22:02.107Z,19.80
2023-09-11T22:24:28.969Z,19.90
2023-09-11T22:26:57.428Z,19.80
2023-09-11T22:29:27.467Z,19.80
2023-09-11T22:31:54.180Z,19.70
2023-09-11T22:34:21.058Z,19.70
2023-09-11T22:36:47.860Z,19.60
2023-09-11T22:39:14.644Z,19.50
2023-09-11T22:41:41.347Z,19.50
2023-09-11T22:44:08.040Z,19.50
2023-09-11T22:46:35.598Z,19.50
2023-09-11T22:49:02.394Z,19.50
2023-09-11T22:51:29.168Z,19.60
2023-09-11T22:53:55.889Z,19.60
2023-09-11T22:56:23.323Z,19.60
2023-09-11T22:58:50.028Z,19.50
2023-09-11T23:01:27.003Z,19.60
2023-09-11T23:03:54.780Z,19.90
2023-09-11T23:06:21.678Z,20.60
2023-09-11T23:08:48.381Z,20.90
2023-09-11T23:11:15.099Z,21.10
2023-09-11T23:13:41.822Z,21.20
2023-09-11T23:16:08.648Z,21.20
2023-09-11T23:18:35.407Z,21.10
2023-09-11T23:21:02.176Z,21.00
2023-09-11T23:23:38.452Z,21.00
2023-09-11T23:26:08.383Z,20.90
2023-09-11T23:28:35.135Z,20.80
2023-09-11T23:31:01.909Z,20.80
2023-09-11T23:33:28.697Z,20.70
2023-09-11T23:35:55.581Z,20.70
2023-09-11T23:38:22.417Z,20.60
2023-09-11T23:40:49.163Z,20.60
2023-09-11T23:43:15.854Z,20.50
2023-09-11T23:45:43.725Z,20.40
2023-09-11T23:48:10.667Z,20.30
2023-09-11T23:50:37.430Z,20.30
2023-09-11T23:53:04.249Z,20.20
2023-09-11T23:55:30.982Z,20.10
2023-09-11T23:57:57.643Z,20.00
